sensor_id;sensor_type;location;lat;lon;timestamp;P1;P2;P0
77365;PMS5003;66430;50.182;11.704;2024-01-27T00:01:57;4;3;
77365;PMS5003;66430;50.182;11.704;2024-01-27T00:04:22;3;3;
77365;PMS5003;66430;50.182;11.704;2024-01-27T00:06:48;3;3;
77365;PMS5003;66430;50.182;11.704;2024-01-27T00:09:13;1;1;
77365;PMS5003;66430;50.182;11.704;2024-01-27T00:11:42;3;2;
77365;PMS5003;66430;50.182;11.704;2024-01-27T00:14:04;2;2;
77365;PMS5003;66430;50.182;11.704;2024-01-27T00:16:30;6;3;
77365;PMS5003;66430;50.182;11.704;2024-01-27T00:18:58;4;2;
77365;PMS5003;66430;50.182;11.704;2024-01-27T00:21:22;3;2;
77365;PMS5003;66430;50.182;11.704;2024-01-27T00:23:47;2;2;
77365;PMS5003;66430;50.182;11.704;2024-01-27T00:26:13;2;2;
77365;PMS5003;66430;50.182;11.704;2024-01-27T00:28:38;3;1;
77365;PMS5003;66430;50.182;11.704;2024-01-27T00:31:04;2;2;
77365;PMS5003;66430;50.182;11.704;2024-01-27T00:33:29;2;2;
77365;PMS5003;66430;50.182;11.704;2024-01-27T00:35:55;2;2;
77365;PMS5003;66430;50.182;11.704;2024-01-27T00:38:20;2;2;
77365;PMS5003;66430;50.182;11.704;2024-01-27T00:40:46;1;1;
77365;PMS5003;66430;50.182;11.704;2024-01-27T00:43:12;1;1;
77365;PMS5003;66430;50.182;11.704;2024-01-27T00:45:37;3;2;
77365;PMS5003;66430;50.182;11.704;2024-01-27T00:48:03;6;2;
77365;PMS5003;66430;50.182;11.704;2024-01-27T00:50:29;1;1;
77365;PMS5003;66430;50.182;11.704;2024-01-27T00:52:54;2;1;
77365;PMS5003;66430;50.182;11.704;2024-01-27T00:55:20;3;2;
77365;PMS5003;66430;50.182;11.704;2024-01-27T00:57:47;2;2;
77365;PMS5003;66430;50.182;11.704;2024-01-27T01:00:12;2;1;
77365;PMS5003;66430;50.182;11.704;2024-01-27T01:02:37;2;1;
77365;PMS5003;66430;50.182;11.704;2024-01-27T01:05:02;3;2;
77365;PMS5003;66430;50.182;11.704;2024-01-27T01:07:28;3;3;
77365;PMS5003;66430;50.182;11.704;2024-01-27T01:09:54;2;2;
77365;PMS5003;66430;50.182;11.704;2024-01-27T01:12:19;3;3;
77365;PMS5003;66430;50.182;11.704;2024-01-27T01:14:45;6;3;
77365;PMS5003;66430;50.182;11.704;2024-01-27T01:17:10;7;7;
77365;PMS5003;66430;50.182;11.704;2024-01-27T01:19:36;7;4;
77365;PMS5003;66430;50.182;11.704;2024-01-27T01:22:02;3;3;
77365;PMS5003;66430;50.182;11.704;2024-01-27T01:24:27;4;4;
77365;PMS5003;66430;50.182;11.704;2024-01-27T01:26:52;6;6;
77365;PMS5003;66430;50.182;11.704;2024-01-27T01:29:18;7;6;
77365;PMS5003;66430;50.182;11.704;2024-01-27T01:31:43;8;7;
77365;PMS5003;66430;50.182;11.704;2024-01-27T01:34:08;4;4;
77365;PMS5003;66430;50.182;11.704;2024-01-27T01:36:34;8;7;
77365;PMS5003;66430;50.182;11.704;2024-01-27T01:39:01;4;4;
77365;PMS5003;66430;50.182;11.704;2024-01-27T01:41:25;8;4;
77365;PMS5003;66430;50.182;11.704;2024-01-27T01:43:51;8;6;
77365;PMS5003;66430;50.182;11.704;2024-01-27T01:46:16;7;7;
77365;PMS5003;66430;50.182;11.704;2024-01-27T01:48:42;4;4;
77365;PMS5003;66430;50.182;11.704;2024-01-27T01:51:08;7;7;
77365;PMS5003;66430;50.182;11.704;2024-01-27T01:53:33;8;8;
77365;PMS5003;66430;50.182;11.704;2024-01-27T01:55:59;6;6;
77365;PMS5003;66430;50.182;11.704;2024-01-27T01:58:24;9;6;
77365;PMS5003;66430;50.182;11.704;2024-01-27T02:00:50;6;6;
77365;PMS5003;66430;50.182;11.704;2024-01-27T02:03:16;8;6;
77365;PMS5003;66430;50.182;11.704;2024-01-27T02:05:41;6;6;
77365;PMS5003;66430;50.182;11.704;2024-01-27T02:08:07;11;6;
77365;PMS5003;66430;50.182;11.704;2024-01-27T02:10:32;8;8;
77365;PMS5003;66430;50.182;11.704;2024-01-27T02:12:58;8;8;
77365;PMS5003;66430;50.182;11.704;2024-01-27T02:15:24;13;12;
77365;PMS5003;66430;50.182;11.704;2024-01-27T02:17:49;8;7;
77365;PMS5003;66430;50.182;11.704;2024-01-27T02:20:14;9;7;
77365;PMS5003;66430;50.182;11.704;2024-01-27T02:22:40;8;6;
77365;PMS5003;66430;50.182;11.704;2024-01-27T02:25:06;11;9;
77365;PMS5003;66430;50.182;11.704;2024-01-27T02:27:31;11;7;
77365;PMS5003;66430;50.182;11.704;2024-01-27T02:29:57;9;7;
77365;PMS5003;66430;50.182;11.704;2024-01-27T02:32:23;9;9;
77365;PMS5003;66430;50.182;11.704;2024-01-27T02:34:47;8;6;
77365;PMS5003;66430;50.182;11.704;2024-01-27T02:37:18;11;8;
77365;PMS5003;66430;50.182;11.704;2024-01-27T02:39:39;6;6;
77365;PMS5003;66430;50.182;11.704;2024-01-27T02:42:05;7;6;
77365;PMS5003;66430;50.182;11.704;2024-01-27T02:44:29;8;8;
77365;PMS5003;66430;50.182;11.704;2024-01-27T02:46:55;7;4;
77365;PMS5003;66430;50.182;11.704;2024-01-27T02:49:21;9;6;
77365;PMS5003;66430;50.182;11.704;2024-01-27T02:51:46;9;8;
77365;PMS5003;66430;50.182;11.704;2024-01-27T02:54:13;12;7;
77365;PMS5003;66430;50.182;11.704;2024-01-27T02:56:37;13;7;
77365;PMS5003;66430;50.182;11.704;2024-01-27T02:59:03;7;7;
77365;PMS5003;66430;50.182;11.704;2024-01-27T03:01:28;8;7;
77365;PMS5003;66430;50.182;11.704;2024-01-27T03:03:54;8;7;
77365;PMS5003;66430;50.182;11.704;2024-01-27T03:06:19;8;6;
77365;PMS5003;66430;50.182;11.704;2024-01-27T03:08:45;11;8;
77365;PMS5003;66430;50.182;11.704;2024-01-27T03:11:10;10;7;
77365;PMS5003;66430;50.182;11.704;2024-01-27T03:13:36;10;7;
77365;PMS5003;66430;50.182;11.704;2024-01-27T03:16:02;11;8;
77365;PMS5003;66430;50.182;11.704;2024-01-27T03:18:27;6;6;
77365;PMS5003;66430;50.182;11.704;2024-01-27T03:20:53;8;8;
77365;PMS5003;66430;50.182;11.704;2024-01-27T03:23:19;6;6;
77365;PMS5003;66430;50.182;11.704;2024-01-27T03:25:45;10;7;
77365;PMS5003;66430;50.182;11.704;2024-01-27T03:28:10;7;7;
77365;PMS5003;66430;50.182;11.704;2024-01-27T03:30:36;5;5;
77365;PMS5003;66430;50.182;11.704;2024-01-27T03:33:01;10;7;
77365;PMS5003;66430;50.182;11.704;2024-01-27T03:35:27;8;8;
77365;PMS5003;66430;50.182;11.704;2024-01-27T03:37:52;6;6;
77365;PMS5003;66430;50.182;11.704;2024-01-27T03:40:18;7;5;
77365;PMS5003;66430;50.182;11.704;2024-01-27T03:42:43;11;8;
77365;PMS5003;66430;50.182;11.704;2024-01-27T03:45:14;8;8;
77365;PMS5003;66430;50.182;11.704;2024-01-27T03:47:36;8;7;
77365;PMS5003;66430;50.182;11.704;2024-01-27T03:50:00;5;5;
77365;PMS5003;66430;50.182;11.704;2024-01-27T03:52:26;7;7;
77365;PMS5003;66430;50.182;11.704;2024-01-27T03:54:51;8;8;
77365;PMS5003;66430;50.182;11.704;2024-01-27T03:57:17;7;6;
77365;PMS5003;66430;50.182;11.704;2024-01-27T03:59:43;10;7;
77365;PMS5003;66430;50.182;11.704;2024-01-27T04:02:08;10;6;
77365;PMS5003;66430;50.182;11.704;2024-01-27T04:04:36;7;5;
77365;PMS5003;66430;50.182;11.704;2024-01-27T04:07:00;7;6;
77365;PMS5003;66430;50.182;11.704;2024-01-27T04:09:25;6;5;
77365;PMS5003;66430;50.182;11.704;2024-01-27T04:11:51;12;10;
77365;PMS5003;66430;50.182;11.704;2024-01-27T04:14:17;7;6;
77365;PMS5003;66430;50.182;11.704;2024-01-27T04:16:42;6;6;
77365;PMS5003;66430;50.182;11.704;2024-01-27T04:19:08;10;7;
77365;PMS5003;66430;50.182;11.704;2024-01-27T04:21:34;8;8;
77365;PMS5003;66430;50.182;11.704;2024-01-27T04:23:59;7;7;
77365;PMS5003;66430;50.182;11.704;2024-01-27T04:26:25;6;6;
77365;PMS5003;66430;50.182;11.704;2024-01-27T04:28:50;5;5;
77365;PMS5003;66430;50.182;11.704;2024-01-27T04:31:17;17;16;
77365;PMS5003;66430;50.182;11.704;2024-01-27T04:33:42;13;10;
77365;PMS5003;66430;50.182;11.704;2024-01-27T04:36:07;7;7;
77365;PMS5003;66430;50.182;11.704;2024-01-27T04:38:33;11;8;
77365;PMS5003;66430;50.182;11.704;2024-01-27T04:40:58;15;15;
77365;PMS5003;66430;50.182;11.704;2024-01-27T04:43:23;7;7;
77365;PMS5003;66430;50.182;11.704;2024-01-27T04:45:49;6;6;
77365;PMS5003;66430;50.182;11.704;2024-01-27T04:48:15;8;7;
77365;PMS5003;66430;50.182;11.704;2024-01-27T04:50:41;12;10;
77365;PMS5003;66430;50.182;11.704;2024-01-27T04:53:06;7;7;
77365;PMS5003;66430;50.182;11.704;2024-01-27T04:55:31;12;8;
77365;PMS5003;66430;50.182;11.704;2024-01-27T04:57:57;11;8;
77365;PMS5003;66430;50.182;11.704;2024-01-27T05:00:22;11;6;
77365;PMS5003;66430;50.182;11.704;2024-01-27T05:02:48;10;8;
77365;PMS5003;66430;50.182;11.704;2024-01-27T05:05:13;8;7;
77365;PMS5003;66430;50.182;11.704;2024-01-27T05:07:39;10;8;
77365;PMS5003;66430;50.182;11.704;2024-01-27T05:10:05;6;6;
77365;PMS5003;66430;50.182;11.704;2024-01-27T05:12:30;12;12;
77365;PMS5003;66430;50.182;11.704;2024-01-27T05:14:55;10;8;
77365;PMS5003;66430;50.182;11.704;2024-01-27T05:17:21;7;7;
77365;PMS5003;66430;50.182;11.704;2024-01-27T05:19:46;11;8;
77365;PMS5003;66430;50.182;11.704;2024-01-27T05:22:12;10;8;
77365;PMS5003;66430;50.182;11.704;2024-01-27T05:24:38;8;7;
77365;PMS5003;66430;50.182;11.704;2024-01-27T05:27:03;11;8;
77365;PMS5003;66430;50.182;11.704;2024-01-27T05:29:28;17;15;
77365;PMS5003;66430;50.182;11.704;2024-01-27T05:31:54;11;8;
77365;PMS5003;66430;50.182;11.704;2024-01-27T05:34:20;13;8;
77365;PMS5003;66430;50.182;11.704;2024-01-27T05:36:45;7;7;
77365;PMS5003;66430;50.182;11.704;2024-01-27T05:39:11;8;6;
77365;PMS5003;66430;50.182;11.704;2024-01-27T05:41:36;8;8;
77365;PMS5003;66430;50.182;11.704;2024-01-27T05:44:02;10;7;
77365;PMS5003;66430;50.182;11.704;2024-01-27T05:46:33;7;7;
77365;PMS5003;66430;50.182;11.704;2024-01-27T05:48:53;8;7;
77365;PMS5003;66430;50.182;11.704;2024-01-27T05:51:24;10;10;
77365;PMS5003;66430;50.182;11.704;2024-01-27T05:53:45;10;8;
77365;PMS5003;66430;50.182;11.704;2024-01-27T05:56:10;11;10;
77365;PMS5003;66430;50.182;11.704;2024-01-27T05:58:36;14;7;
77365;PMS5003;66430;50.182;11.704;2024-01-27T06:01:02;12;11;
77365;PMS5003;66430;50.182;11.704;2024-01-27T06:03:27;17;15;
77365;PMS5003;66430;50.182;11.704;2024-01-27T06:05:52;10;8;
77365;PMS5003;66430;50.182;11.704;2024-01-27T06:08:19;12;7;
77365;PMS5003;66430;50.182;11.704;2024-01-27T06:10:42;16;11;
77365;PMS5003;66430;50.182;11.704;2024-01-27T06:13:08;11;7;
77365;PMS5003;66430;50.182;11.704;2024-01-27T06:15:34;16;11;
77365;PMS5003;66430;50.182;11.704;2024-01-27T06:17:59;15;11;
77365;PMS5003;66430;50.182;11.704;2024-01-27T06:20:25;12;11;
77365;PMS5003;66430;50.182;11.704;2024-01-27T06:22:50;12;7;
77365;PMS5003;66430;50.182;11.704;2024-01-27T06:25:16;16;12;
77365;PMS5003;66430;50.182;11.704;2024-01-27T06:27:41;14;11;
77365;PMS5003;66430;50.182;11.704;2024-01-27T06:30:07;12;10;
77365;PMS5003;66430;50.182;11.704;2024-01-27T06:32:33;14;10;
77365;PMS5003;66430;50.182;11.704;2024-01-27T06:34:58;7;6;
77365;PMS5003;66430;50.182;11.704;2024-01-27T06:37:24;14;14;
77365;PMS5003;66430;50.182;11.704;2024-01-27T06:39:49;15;14;
77365;PMS5003;66430;50.182;11.704;2024-01-27T06:42:14;19;15;
77365;PMS5003;66430;50.182;11.704;2024-01-27T06:44:40;11;10;
77365;PMS5003;66430;50.182;11.704;2024-01-27T06:47:05;16;11;
77365;PMS5003;66430;50.182;11.704;2024-01-27T06:49:31;15;12;
77365;PMS5003;66430;50.182;11.704;2024-01-27T06:51:57;11;10;
77365;PMS5003;66430;50.182;11.704;2024-01-27T06:54:22;11;11;
77365;PMS5003;66430;50.182;11.704;2024-01-27T06:56:47;11;10;
77365;PMS5003;66430;50.182;11.704;2024-01-27T06:59:13;17;8;
77365;PMS5003;66430;50.182;11.704;2024-01-27T07:01:38;16;11;
77365;PMS5003;66430;50.182;11.704;2024-01-27T07:04:04;11;7;
77365;PMS5003;66430;50.182;11.704;2024-01-27T07:06:30;8;8;
77365;PMS5003;66430;50.182;11.704;2024-01-27T07:08:55;9;9;
77365;PMS5003;66430;50.182;11.704;2024-01-27T07:11:21;10;10;
77365;PMS5003;66430;50.182;11.704;2024-01-27T07:13:46;11;10;
77365;PMS5003;66430;50.182;11.704;2024-01-27T07:16:13;16;11;
77365;PMS5003;66430;50.182;11.704;2024-01-27T07:18:37;12;8;
77365;PMS5003;66430;50.182;11.704;2024-01-27T07:21:02;7;7;
77365;PMS5003;66430;50.182;11.704;2024-01-27T07:23:28;12;8;
77365;PMS5003;66430;50.182;11.704;2024-01-27T07:25:54;10;8;
77365;PMS5003;66430;50.182;11.704;2024-01-27T07:28:19;10;8;
77365;PMS5003;66430;50.182;11.704;2024-01-27T07:30:44;15;11;
77365;PMS5003;66430;50.182;11.704;2024-01-27T07:33:15;12;7;
77365;PMS5003;66430;50.182;11.704;2024-01-27T07:35:36;12;10;
77365;PMS5003;66430;50.182;11.704;2024-01-27T07:38:02;12;10;
77365;PMS5003;66430;50.182;11.704;2024-01-27T07:40:28;15;10;
77365;PMS5003;66430;50.182;11.704;2024-01-27T07:42:52;11;7;
77365;PMS5003;66430;50.182;11.704;2024-01-27T07:45:19;12;11;
77365;PMS5003;66430;50.182;11.704;2024-01-27T07:47:43;11;10;
77365;PMS5003;66430;50.182;11.704;2024-01-27T07:50:09;13;8;
77365;PMS5003;66430;50.182;11.704;2024-01-27T07:52:34;8;7;
77365;PMS5003;66430;50.182;11.704;2024-01-27T07:55:00;12;11;
77365;PMS5003;66430;50.182;11.704;2024-01-27T07:57:25;13;8;
77365;PMS5003;66430;50.182;11.704;2024-01-27T07:59:51;16;11;
77365;PMS5003;66430;50.182;11.704;2024-01-27T08:02:17;12;10;
77365;PMS5003;66430;50.182;11.704;2024-01-27T08:04:42;10;7;
77365;PMS5003;66430;50.182;11.704;2024-01-27T08:07:14;11;10;
77365;PMS5003;66430;50.182;11.704;2024-01-27T08:09:34;16;15;
77365;PMS5003;66430;50.182;11.704;2024-01-27T08:11:59;11;8;
77365;PMS5003;66430;50.182;11.704;2024-01-27T08:14:24;15;12;
77365;PMS5003;66430;50.182;11.704;2024-01-27T08:16:50;11;7;
77365;PMS5003;66430;50.182;11.704;2024-01-27T08:19:16;10;10;
77365;PMS5003;66430;50.182;11.704;2024-01-27T08:21:41;13;11;
77365;PMS5003;66430;50.182;11.704;2024-01-27T08:24:07;13;12;
77365;PMS5003;66430;50.182;11.704;2024-01-27T08:26:32;12;8;
77365;PMS5003;66430;50.182;11.704;2024-01-27T08:28:58;11;11;
77365;PMS5003;66430;50.182;11.704;2024-01-27T08:31:23;7;6;
77365;PMS5003;66430;50.182;11.704;2024-01-27T08:33:49;8;8;
77365;PMS5003;66430;50.182;11.704;2024-01-27T08:36:14;10;8;
77365;PMS5003;66430;50.182;11.704;2024-01-27T08:38:40;12;10;
77365;PMS5003;66430;50.182;11.704;2024-01-27T08:41:05;10;7;
77365;PMS5003;66430;50.182;11.704;2024-01-27T08:43:32;13;10;
77365;PMS5003;66430;50.182;11.704;2024-01-27T08:45:56;11;8;
77365;PMS5003;66430;50.182;11.704;2024-01-27T08:48:22;12;10;
77365;PMS5003;66430;50.182;11.704;2024-01-27T08:50:47;10;10;
77365;PMS5003;66430;50.182;11.704;2024-01-27T08:53:13;10;10;
77365;PMS5003;66430;50.182;11.704;2024-01-27T08:55:39;17;15;
77365;PMS5003;66430;50.182;11.704;2024-01-27T08:58:04;20;10;
77365;PMS5003;66430;50.182;11.704;2024-01-27T09:00:30;17;15;
77365;PMS5003;66430;50.182;11.704;2024-01-27T09:02:55;15;11;
77365;PMS5003;66430;50.182;11.704;2024-01-27T09:05:21;18;16;
77365;PMS5003;66430;50.182;11.704;2024-01-27T09:07:47;22;13;
77365;PMS5003;66430;50.182;11.704;2024-01-27T09:10:12;14;9;
77365;PMS5003;66430;50.182;11.704;2024-01-27T09:12:37;11;7;
77365;PMS5003;66430;50.182;11.704;2024-01-27T09:15:03;12;8;
77365;PMS5003;66430;50.182;11.704;2024-01-27T09:17:29;9;8;
77365;PMS5003;66430;50.182;11.704;2024-01-27T09:19:57;12;11;
77365;PMS5003;66430;50.182;11.704;2024-01-27T09:22:20;18;12;
77365;PMS5003;66430;50.182;11.704;2024-01-27T09:24:45;11;11;
77365;PMS5003;66430;50.182;11.704;2024-01-27T09:27:11;14;11;
77365;PMS5003;66430;50.182;11.704;2024-01-27T09:29:37;7;7;
77365;PMS5003;66430;50.182;11.704;2024-01-27T09:32:02;11;9;
77365;PMS5003;66430;50.182;11.704;2024-01-27T09:34:28;12;9;
77365;PMS5003;66430;50.182;11.704;2024-01-27T09:36:53;11;8;
77365;PMS5003;66430;50.182;11.704;2024-01-27T09:39:18;8;8;
77365;PMS5003;66430;50.182;11.704;2024-01-27T09:41:44;16;11;
77365;PMS5003;66430;50.182;11.704;2024-01-27T09:44:09;13;12;
77365;PMS5003;66430;50.182;11.704;2024-01-27T09:46:36;12;9;
77365;PMS5003;66430;50.182;11.704;2024-01-27T09:49:00;18;13;
77365;PMS5003;66430;50.182;11.704;2024-01-27T09:51:26;12;9;
77365;PMS5003;66430;50.182;11.704;2024-01-27T09:53:52;13;12;
77365;PMS5003;66430;50.182;11.704;2024-01-27T09:56:17;14;12;
77365;PMS5003;66430;50.182;11.704;2024-01-27T09:58:43;9;9;
77365;PMS5003;66430;50.182;11.704;2024-01-27T10:01:08;9;9;
77365;PMS5003;66430;50.182;11.704;2024-01-27T10:03:34;13;11;
77365;PMS5003;66430;50.182;11.704;2024-01-27T10:05:59;14;13;
77365;PMS5003;66430;50.182;11.704;2024-01-27T10:08:25;9;9;
77365;PMS5003;66430;50.182;11.704;2024-01-27T10:10:53;11;8;
77365;PMS5003;66430;50.182;11.704;2024-01-27T10:13:18;11;9;
77365;PMS5003;66430;50.182;11.704;2024-01-27T10:15:47;11;11;
77365;PMS5003;66430;50.182;11.704;2024-01-27T10:18:08;9;9;
77365;PMS5003;66430;50.182;11.704;2024-01-27T10:20:36;11;8;
77365;PMS5003;66430;50.182;11.704;2024-01-27T10:22:59;13;13;
77365;PMS5003;66430;50.182;11.704;2024-01-27T10:25:24;19;13;
77365;PMS5003;66430;50.182;11.704;2024-01-27T10:27:55;11;9;
77365;PMS5003;66430;50.182;11.704;2024-01-27T10:30:16;14;11;
77365;PMS5003;66430;50.182;11.704;2024-01-27T10:32:40;15;11;
77365;PMS5003;66430;50.182;11.704;2024-01-27T10:35:07;9;8;
77365;PMS5003;66430;50.182;11.704;2024-01-27T10:37:32;18;18;
77365;PMS5003;66430;50.182;11.704;2024-01-27T10:39:59;14;11;
77365;PMS5003;66430;50.182;11.704;2024-01-27T10:42:23;13;11;
77365;PMS5003;66430;50.182;11.704;2024-01-27T10:44:53;11;8;
77365;PMS5003;66430;50.182;11.704;2024-01-27T10:47:14;8;7;
77365;PMS5003;66430;50.182;11.704;2024-01-27T10:49:39;13;12;
77365;PMS5003;66430;50.182;11.704;2024-01-27T10:52:06;17;15;
77365;PMS5003;66430;50.182;11.704;2024-01-27T10:54:29;10;9;
77365;PMS5003;66430;50.182;11.704;2024-01-27T10:56:55;15;12;
77365;PMS5003;66430;50.182;11.704;2024-01-27T10:59:21;14;10;
77365;PMS5003;66430;50.182;11.704;2024-01-27T11:01:46;14;11;
77365;PMS5003;66430;50.182;11.704;2024-01-27T11:04:13;13;10;
77365;PMS5003;66430;50.182;11.704;2024-01-27T11:06:37;18;14;
77365;PMS5003;66430;50.182;11.704;2024-01-27T11:09:02;17;13;
77365;PMS5003;66430;50.182;11.704;2024-01-27T11:11:27;17;17;
77365;PMS5003;66430;50.182;11.704;2024-01-27T11:13:53;14;10;
77365;PMS5003;66430;50.182;11.704;2024-01-27T11:16:18;13;10;
77365;PMS5003;66430;50.182;11.704;2024-01-27T11:18:44;10;8;
77365;PMS5003;66430;50.182;11.704;2024-01-27T11:21:12;9;9;
77365;PMS5003;66430;50.182;11.704;2024-01-27T11:23:35;14;12;
77365;PMS5003;66430;50.182;11.704;2024-01-27T11:26:04;12;12;
77365;PMS5003;66430;50.182;11.704;2024-01-27T11:28:26;12;9;
77365;PMS5003;66430;50.182;11.704;2024-01-27T11:30:51;18;10;
77365;PMS5003;66430;50.182;11.704;2024-01-27T11:33:17;13;10;
77365;PMS5003;66430;50.182;11.704;2024-01-27T11:35:42;14;10;
77365;PMS5003;66430;50.182;11.704;2024-01-27T11:38:08;10;10;
77365;PMS5003;66430;50.182;11.704;2024-01-27T11:40:43;8;8;
77365;PMS5003;66430;50.182;11.704;2024-01-27T11:43:00;14;8;
77365;PMS5003;66430;50.182;11.704;2024-01-27T11:45:24;9;9;
77365;PMS5003;66430;50.182;11.704;2024-01-27T11:47:55;12;12;
77365;PMS5003;66430;50.182;11.704;2024-01-27T11:50:16;10;10;
77365;PMS5003;66430;50.182;11.704;2024-01-27T11:52:41;12;12;
77365;PMS5003;66430;50.182;11.704;2024-01-27T11:55:07;9;9;
77365;PMS5003;66430;50.182;11.704;2024-01-27T11:57:32;14;9;
77365;PMS5003;66430;50.182;11.704;2024-01-27T11:59:58;9;9;
77365;PMS5003;66430;50.182;11.704;2024-01-27T12:02:23;9;9;
77365;PMS5003;66430;50.182;11.704;2024-01-27T12:04:49;14;13;
77365;PMS5003;66430;50.182;11.704;2024-01-27T12:07:14;12;12;
77365;PMS5003;66430;50.182;11.704;2024-01-27T12:09:39;16;13;
77365;PMS5003;66430;50.182;11.704;2024-01-27T12:12:06;20;14;
77365;PMS5003;66430;50.182;11.704;2024-01-27T12:17:00;10;10;
77365;PMS5003;66430;50.182;11.704;2024-01-27T12:19:23;9;9;
77365;PMS5003;66430;50.182;11.704;2024-01-27T12:21:48;15;15;
77365;PMS5003;66430;50.182;11.704;2024-01-27T12:24:15;11;9;
77365;PMS5003;66430;50.182;11.704;2024-01-27T12:26:39;11;9;
77365;PMS5003;66430;50.182;11.704;2024-01-27T12:29:04;14;12;
77365;PMS5003;66430;50.182;11.704;2024-01-27T12:31:29;16;12;
77365;PMS5003;66430;50.182;11.704;2024-01-27T12:33:55;10;7;
77365;PMS5003;66430;50.182;11.704;2024-01-27T12:36:20;8;8;
77365;PMS5003;66430;50.182;11.704;2024-01-27T12:38:47;16;9;
77365;PMS5003;66430;50.182;11.704;2024-01-27T12:41:11;9;9;
77365;PMS5003;66430;50.182;11.704;2024-01-27T12:43:36;16;13;
77365;PMS5003;66430;50.182;11.704;2024-01-27T12:46:02;12;10;
77365;PMS5003;66430;50.182;11.704;2024-01-27T12:48:27;8;7;
77365;PMS5003;66430;50.182;11.704;2024-01-27T12:50:53;11;9;
77365;PMS5003;66430;50.182;11.704;2024-01-27T12:53:18;13;8;
77365;PMS5003;66430;50.182;11.704;2024-01-27T12:55:44;12;9;
77365;PMS5003;66430;50.182;11.704;2024-01-27T12:58:10;13;9;
77365;PMS5003;66430;50.182;11.704;2024-01-27T13:00:36;10;9;
77365;PMS5003;66430;50.182;11.704;2024-01-27T13:03:01;14;10;
77365;PMS5003;66430;50.182;11.704;2024-01-27T13:05:27;15;10;
77365;PMS5003;66430;50.182;11.704;2024-01-27T13:07:52;11;10;
77365;PMS5003;66430;50.182;11.704;2024-01-27T13:10:18;9;9;
77365;PMS5003;66430;50.182;11.704;2024-01-27T13:12:43;14;11;
77365;PMS5003;66430;50.182;11.704;2024-01-27T13:15:08;10;10;
77365;PMS5003;66430;50.182;11.704;2024-01-27T13:17:34;10;7;
77365;PMS5003;66430;50.182;11.704;2024-01-27T13:20:00;9;9;
77365;PMS5003;66430;50.182;11.704;2024-01-27T13:22:25;11;9;
77365;PMS5003;66430;50.182;11.704;2024-01-27T13:24:52;21;11;
77365;PMS5003;66430;50.182;11.704;2024-01-27T13:27:17;14;10;
77365;PMS5003;66430;50.182;11.704;2024-01-27T13:29:42;9;8;
77365;PMS5003;66430;50.182;11.704;2024-01-27T13:32:07;15;9;
77365;PMS5003;66430;50.182;11.704;2024-01-27T13:34:34;13;10;
77365;PMS5003;66430;50.182;11.704;2024-01-27T13:36:59;10;8;
77365;PMS5003;66430;50.182;11.704;2024-01-27T13:39:24;10;9;
77365;PMS5003;66430;50.182;11.704;2024-01-27T13:41:50;13;9;
77365;PMS5003;66430;50.182;11.704;2024-01-27T13:44:15;12;10;
77365;PMS5003;66430;50.182;11.704;2024-01-27T13:46:41;12;8;
77365;PMS5003;66430;50.182;11.704;2024-01-27T13:49:08;21;15;
77365;PMS5003;66430;50.182;11.704;2024-01-27T13:51:32;9;9;
77365;PMS5003;66430;50.182;11.704;2024-01-27T13:53:57;14;9;
77365;PMS5003;66430;50.182;11.704;2024-01-27T13:56:23;7;5;
77365;PMS5003;66430;50.182;11.704;2024-01-27T13:58:49;8;8;
77365;PMS5003;66430;50.182;11.704;2024-01-27T14:01:14;9;7;
77365;PMS5003;66430;50.182;11.704;2024-01-27T14:03:40;5;5;
77365;PMS5003;66430;50.182;11.704;2024-01-27T14:06:06;13;10;
77365;PMS5003;66430;50.182;11.704;2024-01-27T14:08:30;13;9;
77365;PMS5003;66430;50.182;11.704;2024-01-27T14:10:56;14;13;
77365;PMS5003;66430;50.182;11.704;2024-01-27T14:13:21;9;7;
77365;PMS5003;66430;50.182;11.704;2024-01-27T14:15:48;9;9;
77365;PMS5003;66430;50.182;11.704;2024-01-27T14:18:12;8;7;
77365;PMS5003;66430;50.182;11.704;2024-01-27T14:20:38;13;9;
77365;PMS5003;66430;50.182;11.704;2024-01-27T14:23:03;9;8;
77365;PMS5003;66430;50.182;11.704;2024-01-27T14:25:29;9;9;
77365;PMS5003;66430;50.182;11.704;2024-01-27T14:27:54;11;10;
77365;PMS5003;66430;50.182;11.704;2024-01-27T14:30:20;8;8;
77365;PMS5003;66430;50.182;11.704;2024-01-27T14:32:46;8;7;
77365;PMS5003;66430;50.182;11.704;2024-01-27T14:35:11;10;7;
77365;PMS5003;66430;50.182;11.704;2024-01-27T14:37:36;7;7;
77365;PMS5003;66430;50.182;11.704;2024-01-27T14:40:02;10;7;
77365;PMS5003;66430;50.182;11.704;2024-01-27T14:42:28;11;8;
77365;PMS5003;66430;50.182;11.704;2024-01-27T14:44:53;13;9;
77365;PMS5003;66430;50.182;11.704;2024-01-27T14:47:19;7;5;
77365;PMS5003;66430;50.182;11.704;2024-01-27T14:49:44;9;5;
77365;PMS5003;66430;50.182;11.704;2024-01-27T14:52:10;5;5;
77365;PMS5003;66430;50.182;11.704;2024-01-27T14:54:37;11;7;
77365;PMS5003;66430;50.182;11.704;2024-01-27T14:57:00;11;10;
77365;PMS5003;66430;50.182;11.704;2024-01-27T14:59:26;9;8;
77365;PMS5003;66430;50.182;11.704;2024-01-27T15:01:52;7;7;
77365;PMS5003;66430;50.182;11.704;2024-01-27T15:04:18;8;8;
77365;PMS5003;66430;50.182;11.704;2024-01-27T15:06:43;9;7;
77365;PMS5003;66430;50.182;11.704;2024-01-27T15:09:08;10;9;
77365;PMS5003;66430;50.182;11.704;2024-01-27T15:11:34;8;8;
77365;PMS5003;66430;50.182;11.704;2024-01-27T15:13:59;9;9;
77365;PMS5003;66430;50.182;11.704;2024-01-27T15:16:25;9;8;
77365;PMS5003;66430;50.182;11.704;2024-01-27T15:18:51;14;10;
77365;PMS5003;66430;50.182;11.704;2024-01-27T15:21:16;7;5;
77365;PMS5003;66430;50.182;11.704;2024-01-27T15:23:42;8;7;
77365;PMS5003;66430;50.182;11.704;2024-01-27T15:26:07;8;8;
77365;PMS5003;66430;50.182;11.704;2024-01-27T15:28:33;8;7;
77365;PMS5003;66430;50.182;11.704;2024-01-27T15:30:58;10;9;
77365;PMS5003;66430;50.182;11.704;2024-01-27T15:33:24;8;7;
77365;PMS5003;66430;50.182;11.704;2024-01-27T15:35:49;8;8;
77365;PMS5003;66430;50.182;11.704;2024-01-27T15:38:14;7;7;
77365;PMS5003;66430;50.182;11.704;2024-01-27T15:40:40;11;8;
77365;PMS5003;66430;50.182;11.704;2024-01-27T15:43:06;9;9;
77365;PMS5003;66430;50.182;11.704;2024-01-27T15:45:31;8;6;
77365;PMS5003;66430;50.182;11.704;2024-01-27T15:47:57;8;7;
77365;PMS5003;66430;50.182;11.704;2024-01-27T15:50:22;13;8;
77365;PMS5003;66430;50.182;11.704;2024-01-27T15:52:48;8;8;
77365;PMS5003;66430;50.182;11.704;2024-01-27T15:55:14;10;8;
77365;PMS5003;66430;50.182;11.704;2024-01-27T15:57:39;14;7;
77365;PMS5003;66430;50.182;11.704;2024-01-27T16:00:06;9;8;
77365;PMS5003;66430;50.182;11.704;2024-01-27T16:02:30;15;9;
77365;PMS5003;66430;50.182;11.704;2024-01-27T16:04:55;10;8;
77365;PMS5003;66430;50.182;11.704;2024-01-27T16:07:21;8;6;
77365;PMS5003;66430;50.182;11.704;2024-01-27T16:09:46;27;20;